Time;durP1;ratioP1;P1;durP2;ratioP2;P2;SDS_P1;SDS_P2;PMS_P1;PMS_P2;Temp;Humidity;BMP_temperature;BMP_pressure;BME280_temperature;BME280_humidity;BME280_pressure;Samples;Min_cycle;Max_cycle;Signal;HPM_P1;HPM_P2
2022/06/04 00:01:44;;;;;;;16.63;11.10;;;19.30;99.90;;;;;;5070424;28;20209;-73
2022/06/04 00:04:13;;;;;;;18.87;10.93;;;19.30;99.90;;;;;;5072098;28;20227;-73
2022/06/04 00:06:40;;;;;;;18.77;10.83;;;19.20;99.90;;;;;;5090434;28;20182;-72
2022/06/04 00:09:08;;;;;;;22.17;11.37;;;19.20;99.90;;;;;;5071344;28;20640;-72
2022/06/04 00:17:11;;;;;;;18.67;11.47;;;19.30;99.90;;;;;;5055781;28;20191;-72
2022/06/04 00:19:39;;;;;;;21.07;11.70;;;19.30;99.90;;;;;;5051470;28;20297;-72
2022/06/04 00:22:05;;;;;;;19.13;11.63;;;19.20;99.90;;;;;;5067232;28;20562;-72
2022/06/04 00:24:32;;;;;;;22.63;11.73;;;19.20;99.90;;;;;;5069703;28;20170;-72
2022/06/04 00:26:58;;;;;;;19.70;11.77;;;19.20;99.90;;;;;;5051365;28;20274;-72
2022/06/04 00:29:26;;;;;;;16.23;11.40;;;19.20;99.90;;;;;;5070650;28;20228;-73
2022/06/04 00:31:52;;;;;;;16.27;11.43;;;19.30;99.90;;;;;;5086856;28;20316;-72
2022/06/04 00:34:18;;;;;;;20.10;11.60;;;19.20;99.90;;;;;;5103462;28;20186;-72
2022/06/04 00:36:46;;;;;;;21.13;11.33;;;19.20;99.90;;;;;;5054652;28;20190;-72
2022/06/04 00:39:12;;;;;;;16.67;11.30;;;19.20;99.90;;;;;;5070492;28;20222;-73
2022/06/04 00:42:13;;;;;;;17.27;11.50;;;19.20;99.90;;;;;;5089289;28;20186;-72
2022/06/04 00:45:16;;;;;;;26.10;11.53;;;19.20;99.90;;;;;;5070551;28;20217;-73
2022/06/04 00:47:42;;;;;;;22.07;11.27;;;19.20;99.90;;;;;;5080881;28;20199;-73
2022/06/04 00:50:10;;;;;;;20.80;11.47;;;19.10;99.90;;;;;;5052324;28;20248;-73
2022/06/04 00:52:37;;;;;;;17.97;11.20;;;19.10;99.90;;;;;;5068432;28;20647;-72
2022/06/04 00:55:07;;;;;;;15.13;10.70;;;19.10;99.90;;;;;;5069194;28;20211;-72
2022/06/04 00:58:07;;;;;;;14.73;10.30;;;19.10;99.90;;;;;;5069234;28;20177;-73
2022/06/04 01:00:50;;;;;;;13.37;9.90;;;19.10;99.90;;;;;;5035540;28;20302;-73
2022/06/04 01:04:04;;;;;;;13.43;10.20;;;19.10;99.90;;;;;;5070750;28;20269;-73
2022/06/04 01:07:02;;;;;;;12.27;8.90;;;19.10;99.90;;;;;;5009916;28;20274;-73
2022/06/04 01:09:54;;;;;;;15.53;9.07;;;19.00;99.90;;;;;;5088333;28;20229;-73
2022/06/04 01:12:35;;;;;;;14.37;8.80;;;19.00;99.90;;;;;;5087199;28;20209;-72
2022/06/04 01:15:16;;;;;;;16.53;9.10;;;19.00;99.90;;;;;;5071097;28;20244;-73
2022/06/04 01:18:08;;;;;;;11.23;8.60;;;18.90;99.90;;;;;;5055166;28;20225;-73
2022/06/04 01:21:26;;;;;;;17.77;8.90;;;18.80;99.90;;;;;;5070565;28;20546;-73
2022/06/04 01:24:33;;;;;;;14.80;9.00;;;18.60;99.90;;;;;;5014173;28;20689;-72
2022/06/04 01:27:21;;;;;;;11.70;8.47;;;18.70;99.90;;;;;;5070210;28;20201;-72
2022/06/04 01:30:08;;;;;;;14.13;8.20;;;18.80;99.90;;;;;;5086267;28;20542;-73
2022/06/04 01:33:23;;;;;;;12.43;8.23;;;18.80;99.90;;;;;;5103263;28;20496;-72
2022/06/04 01:36:08;;;;;;;17.60;8.77;;;18.60;99.90;;;;;;5065014;28;20227;-72
2022/06/04 01:38:57;;;;;;;12.40;8.20;;;18.70;99.90;;;;;;5053590;28;20757;-73
2022/06/04 01:41:50;;;;;;;13.07;7.87;;;18.60;99.90;;;;;;5075484;28;20206;-72
2022/06/04 01:44:39;;;;;;;11.30;8.47;;;18.50;99.90;;;;;;5061322;28;20582;-72
2022/06/04 01:47:06;;;;;;;13.23;8.53;;;18.50;99.90;;;;;;5070584;28;20213;-72
2022/06/04 01:49:43;;;;;;;17.17;8.77;;;18.60;99.90;;;;;;5086581;28;20859;-73
2022/06/04 01:52:24;;;;;;;14.77;8.87;;;18.60;99.90;;;;;;5049813;28;20640;-73
2022/06/04 01:55:01;;;;;;;12.37;8.87;;;18.60;99.90;;;;;;5096836;28;20935;-72
2022/06/04 01:58:07;;;;;;;14.23;9.37;;;18.60;99.90;;;;;;5108150;28;20199;-72
2022/06/04 02:00:45;;;;;;;12.30;8.47;;;18.60;99.90;;;;;;5084807;28;20202;-72
2022/06/04 02:03:40;;;;;;;13.60;9.03;;;18.60;99.90;;;;;;5071530;28;20655;-72
2022/06/04 02:06:15;;;;;;;17.07;8.23;;;18.60;99.90;;;;;;5067731;28;20198;-72
2022/06/04 02:08:54;;;;;;;11.07;7.90;;;18.50;99.90;;;;;;5049632;28;20182;-72
2022/06/04 02:11:25;;;;;;;13.70;8.73;;;18.50;99.90;;;;;;5033366;28;20206;-72
2022/06/04 02:13:59;;;;;;;13.13;9.03;;;18.40;99.90;;;;;;5087718;28;20838;-72
2022/06/04 02:16:58;;;;;;;12.07;8.40;;;18.40;99.90;;;;;;5108700;28;20189;-72
2022/06/04 02:19:24;;;;;;;14.33;8.87;;;18.40;99.90;;;;;;5053393;28;20340;-72
2022/06/04 02:21:51;;;;;;;12.07;9.47;;;18.40;99.90;;;;;;5088203;28;20198;-73
2022/06/04 02:24:18;;;;;;;13.87;9.27;;;18.30;99.90;;;;;;5053247;28;20178;-72
2022/06/04 02:26:44;;;;;;;15.43;9.33;;;18.30;99.90;;;;;;5086988;28;20607;-72
2022/06/04 02:29:12;;;;;;;14.20;9.87;;;18.20;99.90;;;;;;5088485;28;20182;-72
2022/06/04 02:32:18;;;;;;;16.50;9.93;;;18.30;99.90;;;;;;5052631;28;20205;-72
2022/06/04 02:35:13;;;;;;;19.03;10.57;;;18.30;99.90;;;;;;5070094;28;20186;-72
2022/06/04 02:38:14;;;;;;;12.47;9.83;;;18.30;99.90;;;;;;5088164;28;20178;-72
2022/06/04 02:41:24;;;;;;;16.70;9.20;;;18.20;99.90;;;;;;5070014;28;20206;-72
2022/06/04 02:44:08;;;;;;;16.53;9.57;;;18.20;99.90;;;;;;5048990;28;20198;-73
2022/06/04 02:46:44;;;;;;;12.47;8.40;;;18.30;99.90;;;;;;5056943;28;20190;-73
2022/06/04 02:49:31;;;;;;;16.67;9.57;;;18.30;99.90;;;;;;5056630;28;20626;-73
2022/06/04 02:51:58;;;;;;;15.27;8.27;;;18.30;99.90;;;;;;5091411;28;20193;-73
2022/06/04 02:54:34;;;;;;;16.40;8.57;;;18.30;99.90;;;;;;5073109;28;21074;-73
2022/06/04 02:57:03;;;;;;;15.77;8.63;;;18.30;99.90;;;;;;5069662;28;20268;-72
2022/06/04 02:59:34;;;;;;;20.27;8.17;;;18.30;99.90;;;;;;5036673;28;20305;-72
2022/06/04 03:02:03;;;;;;;19.27;8.53;;;18.40;99.90;;;;;;5076951;28;20182;-72
2022/06/04 03:04:45;;;;;;;14.57;8.17;;;18.50;99.90;;;;;;5073057;28;20250;-72
2022/06/04 03:07:11;;;;;;;15.97;8.10;;;18.60;99.90;;;;;;5056494;28;20182;-73
2022/06/04 03:09:41;;;;;;;13.87;8.00;;;18.60;99.90;;;;;;5072684;28;20273;-72
2022/06/04 03:12:08;;;;;;;14.37;8.10;;;18.60;99.90;;;;;;5071445;28;20214;-72
2022/06/04 03:14:34;;;;;;;14.23;7.60;;;18.60;99.90;;;;;;5072262;28;20197;-72
2022/06/04 03:17:01;;;;;;;13.23;7.40;;;18.70;99.90;;;;;;5107109;28;20221;-73
2022/06/04 03:19:27;;;;;;;16.60;7.90;;;18.70;99.90;;;;;;5091207;28;20250;-73
2022/06/04 03:21:53;;;;;;;16.23;7.37;;;18.70;99.90;;;;;;5072106;28;20202;-73
2022/06/04 03:24:22;;;;;;;18.20;8.00;;;18.70;99.90;;;;;;5089476;28;20272;-72
2022/06/04 03:26:48;;;;;;;15.27;8.63;;;18.80;99.90;;;;;;5072689;28;20239;-73
2022/06/04 03:29:15;;;;;;;13.53;7.40;;;18.80;99.90;;;;;;5072831;28;20194;-73
2022/06/04 03:31:41;;;;;;;15.63;6.93;;;18.80;99.90;;;;;;5071938;28;20189;-73
2022/06/04 03:34:07;;;;;;;15.80;8.13;;;18.90;99.90;;;;;;5089229;28;20719;-73
2022/06/04 03:36:35;;;;;;;13.03;7.07;;;18.90;99.90;;;;;;5055929;28;20182;-72
2022/06/04 03:39:03;;;;;;;15.17;7.70;;;18.90;99.90;;;;;;5090491;28;20187;-73
2022/06/04 03:41:31;;;;;;;15.83;7.10;;;18.90;99.90;;;;;;5071493;28;20170;-73
2022/06/04 03:43:57;;;;;;;12.77;7.50;;;19.00;99.90;;;;;;5072331;28;20182;-72
2022/06/04 03:46:26;;;;;;;13.20;7.30;;;19.00;99.90;;;;;;5072455;28;20483;-72
2022/06/04 03:48:56;;;;;;;12.87;6.80;;;19.00;99.90;;;;;;5052086;28;20195;-72
2022/06/04 03:51:28;;;;;;;11.87;7.33;;;19.00;99.90;;;;;;5059389;28;20216;-73
2022/06/04 03:53:54;;;;;;;12.87;7.30;;;19.00;99.90;;;;;;5052183;28;20222;-72
2022/06/04 03:56:22;;;;;;;16.53;7.37;;;19.00;99.90;;;;;;5085276;28;20179;-72
2022/06/04 03:58:48;;;;;;;16.03;7.27;;;19.00;99.90;;;;;;5068781;28;20532;-72
2022/06/04 04:01:33;;;;;;;12.93;7.13;;;19.00;99.90;;;;;;5084836;28;20535;-72
2022/06/04 04:04:01;;;;;;;13.00;7.23;;;19.10;99.90;;;;;;5088629;28;20194;-72
2022/06/04 04:06:33;;;;;;;20.93;8.43;;;19.10;99.90;;;;;;5090312;28;20182;-72
2022/06/04 04:09:02;;;;;;;11.43;7.07;;;19.10;99.90;;;;;;5071806;28;20201;-72
2022/06/04 04:11:28;;;;;;;10.47;6.77;;;19.10;99.90;;;;;;5088263;28;20181;-72
2022/06/04 04:13:55;;;;;;;18.27;8.40;;;19.10;99.90;;;;;;5071204;28;20197;-72
2022/06/04 04:16:23;;;;;;;13.70;7.83;;;19.10;99.90;;;;;;5087163;28;20192;-72
2022/06/04 04:18:49;;;;;;;10.83;7.27;;;19.20;99.90;;;;;;5070385;28;20183;-73
2022/06/04 04:21:21;;;;;;;20.83;8.73;;;19.20;99.90;;;;;;5069395;28;20296;-72
2022/06/04 04:23:48;;;;;;;15.40;8.87;;;19.20;99.90;;;;;;5055934;28;20665;-72
2022/06/04 04:26:16;;;;;;;15.30;8.23;;;19.30;99.90;;;;;;5074889;28;20181;-72
2022/06/04 04:28:42;;;;;;;17.67;8.40;;;19.40;99.90;;;;;;5091729;28;20663;-72
2022/06/04 04:31:20;;;;;;;18.70;8.63;;;19.40;99.90;;;;;;5074150;28;20178;-72
2022/06/04 04:33:48;;;;;;;18.07;8.80;;;19.50;99.90;;;;;;5057198;28;20206;-72
2022/06/04 04:36:17;;;;;;;18.63;9.20;;;19.50;99.90;;;;;;5089546;28;20677;-72
2022/06/04 04:38:45;;;;;;;21.67;8.23;;;19.60;99.90;;;;;;5070236;28;20293;-72
2022/06/04 04:41:14;;;;;;;15.67;8.13;;;19.60;99.90;;;;;;5053738;28;20186;-72
2022/06/04 04:43:41;;;;;;;13.20;8.00;;;19.70;99.90;;;;;;5054426;28;20246;-72
2022/06/04 04:46:12;;;;;;;13.57;8.43;;;19.80;99.90;;;;;;5054790;28;20190;-72
2022/06/04 04:48:39;;;;;;;17.53;8.13;;;19.80;99.90;;;;;;5071248;28;20194;-72
2022/06/04 04:51:13;;;;;;;14.03;8.07;;;19.80;99.90;;;;;;5053841;28;20178;-72
2022/06/04 04:53:40;;;;;;;13.80;7.77;;;19.80;99.90;;;;;;5087611;28;20376;-72
2022/06/04 04:56:07;;;;;;;15.13;8.30;;;19.90;99.90;;;;;;5089499;28;20178;-72
2022/06/04 04:58:33;;;;;;;12.17;7.90;;;19.90;99.90;;;;;;5053473;28;20193;-72
2022/06/04 05:00:59;;;;;;;14.80;7.83;;;20.00;99.90;;;;;;5085550;28;20194;-72
2022/06/04 05:03:25;;;;;;;13.70;8.00;;;20.00;99.90;;;;;;5067510;28;20187;-72
2022/06/04 05:06:03;;;;;;;12.83;7.83;;;20.00;99.90;;;;;;5067068;28;20242;-72
2022/06/04 05:08:30;;;;;;;17.20;7.93;;;20.10;99.90;;;;;;5089974;28;20222;-72
2022/06/04 05:11:13;;;;;;;13.67;7.93;;;20.10;99.90;;;;;;5073516;28;20181;-73
2022/06/04 05:13:40;;;;;;;15.33;8.23;;;20.20;99.90;;;;;;5101302;28;20216;-72
2022/06/04 05:16:06;;;;;;;15.30;8.23;;;20.20;99.90;;;;;;5070244;28;20633;-73
2022/06/04 05:18:34;;;;;;;17.17;8.97;;;20.30;99.90;;;;;;5070549;28;20301;-72
2022/06/04 05:21:22;;;;;;;13.73;8.57;;;20.30;99.90;;;;;;5070378;28;20259;-72
2022/06/04 05:23:49;;;;;;;12.57;8.23;;;20.30;99.90;;;;;;5053399;28;20284;-72
2022/06/04 05:26:17;;;;;;;15.30;8.10;;;20.40;99.90;;;;;;5070692;28;20194;-72
2022/06/04 05:28:43;;;;;;;14.97;8.10;;;20.40;99.90;;;;;;5098499;28;20283;-73
2022/06/04 05:31:11;;;;;;;15.77;8.80;;;20.50;99.90;;;;;;5050333;28;20220;-73
2022/06/04 05:33:39;;;;;;;19.47;8.80;;;20.60;99.90;;;;;;5052707;28;20654;-73
2022/06/04 05:36:07;;;;;;;15.97;9.37;;;20.70;99.90;;;;;;5086368;28;20666;-73
2022/06/04 05:38:36;;;;;;;18.17;10.00;;;20.70;99.90;;;;;;5098701;28;20209;-74
2022/06/04 05:41:08;;;;;;;14.13;10.40;;;20.70;99.90;;;;;;5066284;28;20217;-73
2022/06/04 05:43:38;;;;;;;15.60;10.10;;;20.80;99.90;;;;;;5045876;28;20182;-73
2022/06/04 05:46:09;;;;;;;16.00;10.37;;;20.90;99.90;;;;;;5064175;28;20174;-73
2022/06/04 05:48:46;;;;;;;18.40;9.87;;;20.90;99.90;;;;;;5082919;28;20186;-73
2022/06/04 05:51:20;;;;;;;15.33;10.00;;;21.00;99.90;;;;;;5068104;28;20194;-73
2022/06/04 05:53:50;;;;;;;14.13;10.00;;;21.10;99.90;;;;;;5103940;28;20194;-73
2022/06/04 05:56:27;;;;;;;14.50;9.40;;;21.10;99.90;;;;;;5053393;28;20255;-72
2022/06/04 05:58:59;;;;;;;16.60;9.00;;;21.10;99.90;;;;;;5101046;28;20231;-73
2022/06/04 06:01:29;;;;;;;14.13;9.87;;;21.20;99.90;;;;;;5053461;28;20182;-72
2022/06/04 06:03:57;;;;;;;20.87;10.17;;;21.20;99.90;;;;;;5078152;28;20709;-73
2022/06/04 06:06:30;;;;;;;14.53;10.43;;;21.30;99.90;;;;;;5067207;28;20182;-72
2022/06/04 06:09:04;;;;;;;16.70;10.60;;;21.30;99.90;;;;;;5094039;28;20186;-72
2022/06/04 06:11:31;;;;;;;20.57;11.33;;;21.40;99.90;;;;;;5078629;28;20194;-72
2022/06/04 06:13:59;;;;;;;22.23;12.20;;;21.40;99.90;;;;;;5076922;28;20286;-73
2022/06/04 06:16:31;;;;;;;20.30;13.60;;;21.50;99.90;;;;;;5052855;28;20190;-73
2022/06/04 06:18:59;;;;;;;17.73;13.03;;;21.60;99.90;;;;;;5089657;28;20643;-72
2022/06/04 06:21:31;;;;;;;21.83;13.27;;;21.60;99.90;;;;;;5090505;28;20190;-74
2022/06/04 06:24:01;;;;;;;28.50;14.10;;;21.70;99.90;;;;;;5070341;28;20200;-72
2022/06/04 06:26:39;;;;;;;23.97;13.57;;;21.70;99.90;;;;;;5107526;28;20182;-73
2022/06/04 06:29:06;;;;;;;18.57;12.70;;;21.80;99.90;;;;;;5056134;28;20174;-74
2022/06/04 06:31:34;;;;;;;21.53;13.17;;;21.80;99.90;;;;;;5058534;28;20186;-73
2022/06/04 06:34:01;;;;;;;23.80;13.23;;;21.90;99.90;;;;;;5065779;28;20178;-73
2022/06/04 06:36:28;;;;;;;21.57;12.37;;;21.90;99.90;;;;;;5111984;28;20173;-73
2022/06/04 06:38:55;;;;;;;21.30;12.40;;;21.90;99.90;;;;;;5076195;28;20188;-73
2022/06/04 06:41:25;;;;;;;23.30;12.45;;;22.00;99.90;;;;;;5068591;28;20252;-73
2022/06/04 06:43:52;;;;;;;17.40;11.30;;;22.10;99.90;;;;;;5089288;28;20753;-73
2022/06/04 06:46:32;;;;;;;16.77;12.67;;;22.10;99.90;;;;;;5052276;28;20682;-73
2022/06/04 06:49:22;;;;;;;19.83;12.00;;;22.10;99.90;;;;;;5060088;28;20250;-73
2022/06/04 06:52:00;;;;;;;19.60;12.00;;;22.20;99.90;;;;;;5070046;28;20719;-73
2022/06/04 06:54:33;;;;;;;17.42;11.77;;;22.30;99.90;;;;;;5073719;28;20185;-72
2022/06/04 06:57:02;;;;;;;19.98;11.57;;;22.40;99.90;;;;;;5054351;28;20263;-73
2022/06/04 06:59:29;;;;;;;15.02;11.30;;;22.40;99.90;;;;;;5063569;28;20601;-73
2022/06/04 07:01:58;;;;;;;25.05;11.73;;;22.50;99.90;;;;;;5094422;28;20296;-73
2022/06/04 07:04:25;;;;;;;17.70;11.57;;;22.60;99.90;;;;;;5071815;28;20270;-73
2022/06/04 07:07:00;;;;;;;20.30;11.90;;;22.70;99.90;;;;;;5077377;28;20193;-73
2022/06/04 07:09:36;;;;;;;20.23;12.75;;;22.70;99.90;;;;;;5099084;27;20534;-74
2022/06/04 07:12:04;;;;;;;19.60;13.45;;;22.80;99.90;;;;;;5065092;28;20190;-72
2022/06/04 07:14:31;;;;;;;20.08;12.50;;;22.90;99.90;;;;;;5084207;28;20222;-73
2022/06/04 07:16:58;;;;;;;21.02;12.90;;;22.90;99.90;;;;;;5048208;28;20192;-74
2022/06/04 07:19:27;;;;;;;20.83;13.48;;;22.90;99.90;;;;;;5051177;28;20230;-73
2022/06/04 07:21:55;;;;;;;17.83;13.30;;;23.10;99.90;;;;;;5051687;28;20194;-73
2022/06/04 07:24:22;;;;;;;17.42;12.68;;;23.10;99.90;;;;;;5092124;28;20670;-72
2022/06/04 07:26:52;;;;;;;21.00;12.73;;;23.20;99.90;;;;;;5088092;28;20190;-72
2022/06/04 07:29:18;;;;;;;23.38;13.20;;;23.20;99.90;;;;;;5035512;28;20222;-73
2022/06/04 07:31:45;;;;;;;17.05;12.70;;;23.30;99.90;;;;;;5073964;28;20190;-73
2022/06/04 07:34:12;;;;;;;17.60;12.30;;;23.30;99.90;;;;;;5057142;28;20540;-73
2022/06/04 07:36:44;;;;;;;17.45;13.02;;;23.40;99.90;;;;;;5059080;28;20907;-74
2022/06/04 07:39:14;;;;;;;16.88;12.23;;;23.50;99.90;;;;;;5086232;28;20243;-73
2022/06/04 07:41:44;;;;;;;18.38;11.73;;;23.60;99.90;;;;;;5044525;28;20205;-74
2022/06/04 07:44:16;;;;;;;21.58;12.55;;;23.60;99.90;;;;;;5051871;28;20190;-74
2022/06/04 07:46:45;;;;;;;20.05;12.38;;;23.70;99.90;;;;;;5061438;28;20622;-73
2022/06/04 07:49:13;;;;;;;17.30;11.98;;;23.80;99.90;;;;;;5083191;28;20229;-73
2022/06/04 07:51:41;;;;;;;18.63;11.50;;;23.90;99.90;;;;;;5082049;28;20654;-72
2022/06/04 07:54:09;;;;;;;20.73;11.70;;;24.00;99.90;;;;;;5091010;28;20214;-72
2022/06/04 07:56:37;;;;;;;17.42;11.32;;;24.10;99.90;;;;;;5079636;28;20187;-71
2022/06/04 07:59:06;;;;;;;16.80;11.45;;;24.20;99.90;;;;;;5052732;28;20191;-72
2022/06/04 08:01:33;;;;;;;19.77;11.13;;;24.30;99.90;;;;;;5095556;28;20752;-72
2022/06/04 08:03:59;;;;;;;20.05;11.20;;;24.40;99.90;;;;;;5053027;28;20214;-73
2022/06/04 08:06:26;;;;;;;19.92;11.40;;;24.40;99.90;;;;;;5080195;28;20186;-73
2022/06/04 08:08:58;;;;;;;19.77;11.02;;;24.50;99.90;;;;;;5103637;28;20651;-74
2022/06/04 08:11:31;;;;;;;20.67;11.73;;;24.60;99.90;;;;;;5069359;28;20194;-72
2022/06/04 08:14:03;;;;;;;17.15;10.75;;;24.70;99.90;;;;;;5058487;28;20210;-73
2022/06/04 08:16:30;;;;;;;21.20;11.07;;;24.70;99.90;;;;;;5073688;28;20250;-73
2022/06/04 08:18:56;;;;;;;25.08;11.88;;;24.70;99.90;;;;;;5073773;28;20281;-72
2022/06/04 08:21:22;;;;;;;18.98;10.77;;;24.70;99.90;;;;;;5087107;28;20247;-72
2022/06/04 08:23:49;;;;;;;16.35;9.70;;;24.60;99.90;;;;;;5096088;28;20205;-73
2022/06/04 08:26:16;;;;;;;19.50;10.32;;;24.80;99.90;;;;;;5069359;28;20190;-72
2022/06/04 08:28:43;;;;;;;20.30;10.07;;;24.90;99.90;;;;;;5078862;28;20211;-73
2022/06/04 08:31:14;;;;;;;19.13;9.93;;;25.00;99.90;;;;;;5082830;28;20399;-72
2022/06/04 08:33:53;;;;;;;;;;;;;;;;;;;;;
2022/06/04 08:36:19;;;;;;;18.48;10.05;;;24.90;99.90;;;;;;5085093;28;20204;-73
2022/06/04 08:38:46;;;;;;;17.10;9.63;;;24.90;99.90;;;;;;5068181;28;20651;-72
2022/06/04 08:41:40;;;;;;;16.35;10.57;;;24.90;99.90;;;;;;5064296;28;20923;-73
2022/06/04 08:44:27;;;;;;;25.08;10.40;;;25.10;99.90;;;;;;5098966;28;20637;-72
2022/06/04 08:47:25;;;;;;;17.70;9.90;;;25.10;99.90;;;;;;5071501;28;20222;-72
2022/06/04 08:50:06;;;;;;;18.40;10.27;;;25.20;99.90;;;;;;5069662;28;20580;-72
2022/06/04 08:52:52;;;;;;;17.52;9.70;;;25.00;99.90;;;;;;5081005;28;20194;-72
2022/06/04 08:58:45;;;;;;;17.58;9.43;;;25.00;99.90;;;;;;5077156;28;20185;-72
2022/06/04 09:01:25;;;;;;;21.52;9.60;;;25.10;99.90;;;;;;5057001;28;20767;-73
2022/06/04 09:04:33;;;;;;;15.73;9.07;;;25.10;99.90;;;;;;5085042;28;20186;-72
2022/06/04 09:07:27;;;;;;;16.85;9.50;;;24.90;99.90;;;;;;5051098;28;20201;-72
2022/06/04 09:10:29;;;;;;;15.27;9.10;;;25.00;99.90;;;;;;5086748;28;20178;-72
2022/06/04 09:13:22;;;;;;;18.23;9.25;;;25.20;99.90;;;;;;5086970;28;20284;-73
2022/06/04 09:15:55;;;;;;;15.27;8.50;;;25.10;99.90;;;;;;5050641;28;20273;-72
2022/06/04 09:18:36;;;;;;;17.02;8.95;;;24.90;99.90;;;;;;5084472;28;20193;-72
2022/06/04 09:21:08;;;;;;;16.58;8.50;;;25.00;99.90;;;;;;5088129;28;20288;-72
2022/06/04 09:23:35;;;;;;;15.32;8.45;;;25.20;99.90;;;;;;5069434;28;20641;-73
2022/06/04 09:26:26;;;;;;;12.45;7.25;;;25.50;99.90;;;;;;5084394;28;20185;-73
2022/06/04 09:29:21;;;;;;;21.27;8.30;;;25.70;99.90;;;;;;5041406;28;20269;-72
2022/06/04 09:32:00;;;;;;;22.10;8.45;;;26.00;99.90;;;;;;5069630;28;20194;-72
2022/06/04 09:34:38;;;;;;;14.68;7.63;;;26.00;99.90;;;;;;5069394;28;20197;-72
2022/06/04 09:37:11;;;;;;;13.20;8.73;;;25.90;99.90;;;;;;5066125;28;20547;-72
2022/06/04 09:39:42;;;;;;;14.57;8.10;;;25.80;99.90;;;;;;5078755;28;20210;-73
2022/06/04 09:42:12;;;;;;;17.90;7.45;;;25.70;99.90;;;;;;5083572;28;20204;-72
2022/06/04 09:44:57;;;;;;;17.92;7.82;;;25.40;99.90;;;;;;5046348;28;20606;-72
2022/06/04 09:47:51;;;;;;;14.10;7.68;;;25.50;99.90;;;;;;5065514;28;20264;-73
2022/06/04 09:50:37;;;;;;;16.92;7.78;;;25.50;99.90;;;;;;5096362;28;20280;-73
2022/06/04 09:53:20;;;;;;;13.43;7.25;;;25.60;99.90;;;;;;5100821;28;20229;-72
2022/06/04 09:56:14;;;;;;;14.32;7.18;;;25.80;99.90;;;;;;5057631;28;20254;-73
2022/06/04 09:58:47;;;;;;;18.08;6.93;;;26.10;99.90;;;;;;5085072;28;20221;-73
2022/06/04 10:01:16;;;;;;;13.15;7.05;;;26.30;99.90;;;;;;5073046;28;20246;-72
2022/06/04 10:03:58;;;;;;;13.32;7.05;;;26.40;99.90;;;;;;5092295;28;20201;-72
2022/06/04 10:06:27;;;;;;;15.52;6.70;;;26.50;99.90;;;;;;5091791;28;20227;-72
2022/06/04 10:11:54;;;;;;;20.92;7.00;;;26.10;99.90;;;;;;5087202;28;20175;-72
2022/06/04 10:14:39;;;;;;;14.15;6.85;;;26.20;99.90;;;;;;5072085;28;20185;-72
2022/06/04 10:17:33;;;;;;;16.15;7.05;;;26.30;99.90;;;;;;5068793;28;20182;-73
2022/06/04 10:20:00;;;;;;;14.68;6.78;;;26.20;99.90;;;;;;5077420;28;20206;-72
2022/06/04 10:22:26;;;;;;;20.95;6.72;;;26.30;99.90;;;;;;5084165;28;20209;-73
2022/06/04 10:24:58;;;;;;;14.95;7.07;;;26.50;99.90;;;;;;5088467;28;20273;-72
2022/06/04 10:28:15;;;;;;;13.82;6.22;;;26.70;99.90;;;;;;5068779;28;20194;-73
2022/06/04 10:30:54;;;;;;;13.48;6.30;;;26.50;99.90;;;;;;5063011;28;20264;-72
2022/06/04 10:33:37;;;;;;;18.00;6.28;;;26.20;99.90;;;;;;5102399;28;20186;-72
2022/06/04 10:36:37;;;;;;;14.30;6.72;;;26.30;99.90;;;;;;5088443;28;20284;-72
2022/06/04 10:39:40;;;;;;;18.42;6.72;;;26.40;99.90;;;;;;5049739;28;20190;-72
2022/06/04 10:42:42;;;;;;;15.48;5.93;;;26.50;99.90;;;;;;5086527;28;20186;-71
2022/06/04 10:45:59;;;;;;;15.25;5.60;;;26.70;99.90;;;;;;5062588;28;20822;-72
2022/06/04 10:49:22;;;;;;;16.70;6.57;;;26.90;99.90;;;;;;5074329;27;20218;-71
2022/06/04 10:52:23;;;;;;;16.20;6.15;;;27.10;99.90;;;;;;5073614;28;20674;-71
2022/06/04 10:55:31;;;;;;;11.57;5.63;;;27.10;99.90;;;;;;5087191;28;20254;-72
2022/06/04 10:58:25;;;;;;;14.98;6.30;;;27.10;99.90;;;;;;5086263;28;20193;-70
2022/06/04 11:01:13;;;;;;;15.10;6.18;;;27.10;99.90;;;;;;5079863;28;20316;-71
2022/06/04 11:03:56;;;;;;;16.23;6.22;;;27.00;99.90;;;;;;5053199;28;20957;-71
2022/06/04 11:06:32;;;;;;;15.27;6.25;;;26.90;99.90;;;;;;5067534;28;20186;-71
2022/06/04 11:09:14;;;;;;;15.10;6.15;;;26.90;99.90;;;;;;5091179;28;20296;-71
2022/06/04 11:11:57;;;;;;;17.67;5.70;;;27.00;99.90;;;;;;5067241;28;20251;-71
2022/06/04 11:14:55;;;;;;;15.32;6.20;;;27.00;99.90;;;;;;5054663;28;20189;-71
2022/06/04 11:17:40;;;;;;;13.48;5.90;;;27.10;99.90;;;;;;5069342;28;20206;-71
2022/06/04 11:20:20;;;;;;;14.15;6.00;;;27.20;99.90;;;;;;5063102;28;20689;-71
2022/06/04 11:23:41;;;;;;;16.52;6.35;;;27.10;99.90;;;;;;5069970;28;20243;-71
2022/06/04 11:26:44;;;;;;;16.95;6.28;;;27.10;99.90;;;;;;5091953;28;20632;-71
2022/06/04 11:29:12;;;;;;;11.23;6.05;;;27.00;99.90;;;;;;5021783;28;20209;-71
2022/06/04 11:32:25;;;;;;;15.90;5.55;;;27.00;99.90;;;;;;5078399;28;20178;-73
2022/06/04 11:35:20;;;;;;;11.27;5.75;;;26.90;99.90;;;;;;5081086;28;20182;-72
2022/06/04 11:38:12;;;;;;;17.23;5.68;;;26.80;99.90;;;;;;5077970;28;20201;-73
2022/06/04 11:41:18;;;;;;;16.02;6.25;;;26.60;99.90;;;;;;5069654;28;20211;-72
2022/06/04 11:44:31;;;;;;;15.10;6.50;;;26.60;99.90;;;;;;5068328;28;20194;-73
2022/06/04 11:47:38;;;;;;;13.55;6.25;;;26.60;99.90;;;;;;5064369;28;20198;-72
2022/06/04 11:50:37;;;;;;;15.68;6.35;;;26.60;99.90;;;;;;5046678;28;20186;-72
2022/06/04 11:53:36;;;;;;;14.57;6.57;;;26.80;99.90;;;;;;5058310;28;20190;-72
2022/06/04 11:56:41;;;;;;;16.42;6.10;;;26.60;99.90;;;;;;5069333;28;20236;-72
2022/06/04 11:59:22;;;;;;;18.63;6.05;;;26.70;99.90;;;;;;5082998;28;20842;-72
2022/06/04 12:02:25;;;;;;;15.05;6.80;;;26.60;99.90;;;;;;5075607;28;20292;-72
2022/06/04 12:05:23;;;;;;;20.13;6.50;;;26.70;99.90;;;;;;5066293;28;20185;-72
2022/06/04 12:07:54;;;;;;;13.88;6.35;;;26.80;99.90;;;;;;5050985;28;20718;-73
2022/06/04 12:10:55;;;;;;;14.77;6.53;;;26.70;99.90;;;;;;5051979;28;20229;-72
2022/06/04 12:13:40;;;;;;;15.85;6.93;;;26.70;99.90;;;;;;5086606;28;20217;-72
2022/06/04 12:16:43;;;;;;;18.80;7.05;;;26.80;99.90;;;;;;5052212;28;20205;-72
2022/06/04 12:25:44;;;;;;;13.35;6.20;;;26.60;99.90;;;;;;5077430;28;20182;-72
2022/06/04 12:28:40;;;;;;;21.77;6.78;;;26.40;99.90;;;;;;5054594;28;20187;-71
2022/06/04 12:31:09;;;;;;;14.05;6.78;;;26.40;99.90;;;;;;5057319;28;20209;-73
2022/06/04 12:33:51;;;;;;;14.80;7.25;;;26.40;99.90;;;;;;5074236;28;20576;-73
2022/06/04 12:36:37;;;;;;;16.10;7.40;;;26.30;99.90;;;;;;5087089;28;20259;-73
2022/06/04 12:39:29;;;;;;;15.73;6.43;;;26.30;99.90;;;;;;5070860;28;20281;-73
2022/06/04 12:42:01;;;;;;;14.88;7.30;;;26.40;99.90;;;;;;5083988;28;20280;-73
2022/06/04 12:44:34;;;;;;;19.27;7.00;;;26.20;99.90;;;;;;5066363;28;20201;-73
2022/06/04 12:47:23;;;;;;;22.73;7.60;;;26.30;99.90;;;;;;5047390;28;20589;-73
2022/06/04 12:50:11;;;;;;;15.50;7.53;;;26.40;99.90;;;;;;5078323;28;20270;-73
2022/06/04 12:52:57;;;;;;;16.23;6.75;;;26.50;99.90;;;;;;5085534;28;20198;-73
2022/06/04 12:55:36;;;;;;;14.82;7.20;;;26.50;99.90;;;;;;5061458;28;20421;-73
2022/06/04 12:58:28;;;;;;;11.50;6.63;;;26.40;99.90;;;;;;5066824;28;20190;-73
2022/06/04 13:01:05;;;;;;;16.13;7.20;;;26.30;99.90;;;;;;5060166;28;20209;-73
2022/06/04 13:03:39;;;;;;;15.90;7.45;;;26.50;99.90;;;;;;5040169;28;20198;-72
2022/06/04 13:06:32;;;;;;;15.77;8.07;;;26.40;99.90;;;;;;5068981;28;20185;-73
2022/06/04 13:09:27;;;;;;;12.05;7.65;;;26.30;99.90;;;;;;5060240;28;20190;-74
2022/06/04 13:12:34;;;;;;;16.08;7.47;;;26.30;99.90;;;;;;5066044;28;20273;-74
2022/06/04 13:15:44;;;;;;;14.77;8.05;;;26.30;99.90;;;;;;5067486;28;20293;-73
2022/06/04 13:18:33;;;;;;;17.60;7.85;;;26.50;99.90;;;;;;5053082;28;20190;-74
2022/06/04 13:21:12;;;;;;;17.77;7.60;;;26.30;99.90;;;;;;5048716;28;20210;-74
2022/06/04 13:23:46;;;;;;;18.33;7.90;;;26.30;99.90;;;;;;5095531;28;20273;-74
2022/06/04 13:26:48;;;;;;;12.73;7.82;;;26.30;99.90;;;;;;5066765;28;20272;-74
2022/06/04 13:29:27;;;;;;;20.52;7.75;;;26.30;99.90;;;;;;5067277;28;20216;-73
2022/06/04 13:32:00;;;;;;;12.30;7.55;;;26.30;99.90;;;;;;5066326;28;20186;-73
2022/06/04 13:34:33;;;;;;;17.60;7.28;;;26.30;99.90;;;;;;5036201;28;20195;-73
2022/06/04 13:37:07;;;;;;;13.50;7.30;;;26.30;99.90;;;;;;5075513;28;20190;-73
2022/06/04 13:39:36;;;;;;;14.40;7.00;;;26.30;99.90;;;;;;5031672;28;20218;-73
2022/06/04 13:42:22;;;;;;;15.52;7.20;;;26.30;99.90;;;;;;5093132;28;20551;-73
2022/06/04 13:45:20;;;;;;;15.23;7.65;;;26.30;99.90;;;;;;5059126;28;20190;-73
2022/06/04 13:47:58;;;;;;;14.57;6.72;;;26.30;99.90;;;;;;5050727;28;20193;-73
2022/06/04 13:50:32;;;;;;;12.82;7.40;;;26.30;99.90;;;;;;5085854;28;20190;-73